createdAt,value
2019-01-12T00:00:49.339Z,19.90
2019-01-12T00:03:18.391Z,21.13
2019-01-12T00:05:47.482Z,20.33
2019-01-12T00:08:16.644Z,20.00
2019-01-12T00:10:46.037Z,21.37
2019-01-12T00:13:15.089Z,21.97
2019-01-12T00:15:44.156Z,19.93
2019-01-12T00:18:13.579Z,27.10
2019-01-12T00:20:42.999Z,30.33
2019-01-12T00:23:12.147Z,47.23
2019-01-12T00:25:41.523Z,21.03
2019-01-12T00:28:10.578Z,21.67
2019-01-12T00:30:39.897Z,22.07
2019-01-12T00:33:11.827Z,21.70
2019-01-12T00:35:40.988Z,21.60
2019-01-12T00:38:10.367Z,21.43
2019-01-12T00:40:39.518Z,19.07
2019-01-12T00:43:09.037Z,20.13
2019-01-12T00:45:38.106Z,16.90
2019-01-12T00:48:07.244Z,17.97
2019-01-12T00:50:36.375Z,19.80
2019-01-12T00:53:05.519Z,23.13
2019-01-12T00:55:34.569Z,19.43
2019-01-12T00:58:03.726Z,20.40
2019-01-12T01:00:32.884Z,21.47
2019-01-12T01:03:02.010Z,21.27
2019-01-12T01:05:31.082Z,21.13
2019-01-12T01:08:00.215Z,19.33
2019-01-12T01:10:29.334Z,18.00
2019-01-12T01:12:58.638Z,19.40
2019-01-12T01:15:27.772Z,17.70
2019-01-12T01:17:57.166Z,17.10
2019-01-12T01:20:26.311Z,16.00
2019-01-12T01:22:55.453Z,16.40
2019-01-12T01:25:24.887Z,17.80
2019-01-12T01:27:54.014Z,15.20
2019-01-12T01:30:23.163Z,15.97
2019-01-12T01:32:52.291Z,15.67
2019-01-12T01:35:21.423Z,16.43
2019-01-12T01:37:50.586Z,16.50
2019-01-12T01:40:19.710Z,14.40
2019-01-12T01:42:48.764Z,13.77
2019-01-12T01:45:17.902Z,15.63
2019-01-12T01:47:47.053Z,15.53
2019-01-12T01:50:16.890Z,16.83
2019-01-12T01:52:46.019Z,17.83
2019-01-12T01:55:15.162Z,18.30
2019-01-12T01:57:44.285Z,19.17
2019-01-12T02:00:14.738Z,18.17
2019-01-12T02:02:43.894Z,18.57
2019-01-12T02:05:13.326Z,19.63
2019-01-12T02:07:42.458Z,19.80
2019-01-12T02:10:13.505Z,20.30
2019-01-12T02:12:42.928Z,20.50
2019-01-12T02:15:12.182Z,19.47
2019-01-12T02:17:41.505Z,18.40
2019-01-12T02:20:10.668Z,17.23
2019-01-12T02:22:39.800Z,19.27
2019-01-12T02:25:08.944Z,19.40
2019-01-12T02:27:38.016Z,19.07
2019-01-12T02:30:09.537Z,21.30
2019-01-12T02:32:38.664Z,19.03
2019-01-12T02:35:08.059Z,19.87
2019-01-12T02:37:37.214Z,21.00
2019-01-12T02:40:06.368Z,23.20
2019-01-12T02:42:35.503Z,25.87
2019-01-12T02:45:05.572Z,24.47
2019-01-12T02:47:34.899Z,22.77
2019-01-12T02:50:05.067Z,24.33
2019-01-12T02:52:34.238Z,25.37
2019-01-12T02:55:08.636Z,22.90
2019-01-12T02:57:34.332Z,26.33
2019-01-12T03:00:05.159Z,22.00
2019-01-12T03:02:34.311Z,22.30
2019-01-12T03:05:04.380Z,23.07
2019-01-12T03:07:33.527Z,21.37
2019-01-12T03:10:02.695Z,21.77
2019-01-12T03:12:32.091Z,24.57
2019-01-12T03:15:01.171Z,21.60
2019-01-12T03:17:30.339Z,19.90
2019-01-12T03:19:59.444Z,18.10
2019-01-12T03:22:28.556Z,20.13
2019-01-12T03:24:57.639Z,18.10
2019-01-12T03:27:26.719Z,18.77
2019-01-12T03:29:55.805Z,19.10
2019-01-12T03:32:25.261Z,18.87
2019-01-12T03:34:54.669Z,17.97
2019-01-12T03:37:23.805Z,17.53
2019-01-12T03:39:53.223Z,20.30
2019-01-12T03:42:22.832Z,18.73
2019-01-12T03:44:51.995Z,19.77
2019-01-12T03:47:21.266Z,18.10
2019-01-12T03:49:50.450Z,20.40
2019-01-12T03:52:19.854Z,20.10
2019-01-12T03:54:49.350Z,19.00
2019-01-12T03:57:18.505Z,20.20
2019-01-12T03:59:47.739Z,20.33
2019-01-12T04:02:17.360Z,19.80
2019-01-12T04:04:46.816Z,19.10
2019-01-12T04:07:16.169Z,20.73
2019-01-12T04:09:45.263Z,19.30
2019-01-12T04:12:14.366Z,18.90
2019-01-12T04:14:43.457Z,18.77
2019-01-12T04:17:12.627Z,16.60
2019-01-12T04:19:41.799Z,19.97
2019-01-12T04:22:10.961Z,18.63
2019-01-12T04:24:40.130Z,19.13
2019-01-12T04:27:09.309Z,21.00
2019-01-12T04:29:38.467Z,21.67
2019-01-12T04:32:07.618Z,20.17
2019-01-12T04:34:36.767Z,19.73
2019-01-12T04:37:05.928Z,19.70
2019-01-12T04:39:35.011Z,19.43
2019-01-12T04:42:04.276Z,19.77
2019-01-12T04:44:33.427Z,19.13
2019-01-12T04:47:02.629Z,20.37
2019-01-12T04:49:31.685Z,20.77
2019-01-12T04:52:00.827Z,18.77
2019-01-12T04:54:29.932Z,21.30
2019-01-12T04:56:59.412Z,20.27
2019-01-12T04:59:28.581Z,17.83
2019-01-12T05:01:57.727Z,20.50
2019-01-12T05:04:27.254Z,18.00
2019-01-12T05:06:56.606Z,18.30
2019-01-12T05:09:25.694Z,20.00
2019-01-12T05:11:54.771Z,20.60
2019-01-12T05:14:23.860Z,21.07
2019-01-12T05:16:53.003Z,22.07
2019-01-12T05:19:22.099Z,22.27
2019-01-12T05:21:51.174Z,20.80
2019-01-12T05:24:20.294Z,23.17
2019-01-12T05:26:49.367Z,24.10
2019-01-12T05:29:18.450Z,24.70
2019-01-12T05:31:47.631Z,23.53
2019-01-12T05:34:16.957Z,23.60
2019-01-12T05:36:46.121Z,22.27
2019-01-12T05:39:15.368Z,22.80
2019-01-12T05:41:44.695Z,20.30
2019-01-12T05:44:13.794Z,22.10
2019-01-12T05:46:42.994Z,19.20
2019-01-12T05:49:12.165Z,20.20
2019-01-12T05:51:41.250Z,21.33
2019-01-12T05:54:10.653Z,21.07
2019-01-12T05:56:39.979Z,20.80
2019-01-12T05:59:09.128Z,20.40
2019-01-12T06:01:38.296Z,18.53
2019-01-12T06:04:07.633Z,18.43
2019-01-12T06:06:36.737Z,20.00
2019-01-12T06:09:06.933Z,17.20
2019-01-12T06:11:36.363Z,18.37
2019-01-12T06:14:05.514Z,16.53
2019-01-12T06:16:34.600Z,18.17
2019-01-12T06:19:03.749Z,17.27
2019-01-12T06:21:32.916Z,19.37
2019-01-12T06:24:02.068Z,17.73
2019-01-12T06:26:31.163Z,18.67
2019-01-12T06:29:00.563Z,19.07
2019-01-12T06:31:29.884Z,20.50
2019-01-12T06:34:18.168Z,18.37
2019-01-12T06:36:47.266Z,15.27
2019-01-12T06:39:16.417Z,13.73
2019-01-12T06:41:45.578Z,17.43
2019-01-12T06:44:14.976Z,16.67
2019-01-12T06:46:44.384Z,17.00
2019-01-12T06:49:13.460Z,18.47
2019-01-12T06:51:42.620Z,18.87
2019-01-12T06:54:12.020Z,19.40
2019-01-12T06:56:41.385Z,20.07
2019-01-12T06:59:10.457Z,20.83
2019-01-12T07:01:39.787Z,21.00
2019-01-12T07:04:09.132Z,22.80
2019-01-12T07:06:38.291Z,24.00
2019-01-12T07:09:07.863Z,21.33
2019-01-12T07:11:37.083Z,20.60
2019-01-12T07:14:06.238Z,21.23
2019-01-12T07:16:35.367Z,22.67
2019-01-12T07:19:04.563Z,18.13
2019-01-12T07:21:33.648Z,20.00
2019-01-12T07:24:02.741Z,19.53
2019-01-12T07:26:31.823Z,21.60
2019-01-12T07:29:00.918Z,22.33
2019-01-12T07:31:29.993Z,21.03
2019-01-12T07:33:59.544Z,20.23
2019-01-12T07:36:28.614Z,19.20
2019-01-12T07:38:58.037Z,17.87
2019-01-12T07:41:27.450Z,16.73
2019-01-12T07:43:56.612Z,14.97
2019-01-12T07:46:25.701Z,16.93
2019-01-12T07:48:54.814Z,15.60
2019-01-12T07:51:23.963Z,15.83
2019-01-12T07:53:53.380Z,14.53
2019-01-12T07:56:24.644Z,16.07
2019-01-12T07:58:53.317Z,16.80
2019-01-12T08:01:22.472Z,15.17
2019-01-12T08:03:51.918Z,14.57
2019-01-12T08:06:21.065Z,28.40
2019-01-12T08:08:50.227Z,20.20
2019-01-12T08:11:19.613Z,22.93
2019-01-12T08:13:49.043Z,20.30
2019-01-12T08:16:18.183Z,19.93
2019-01-12T08:18:47.632Z,15.27
2019-01-12T08:21:16.718Z,16.80
2019-01-12T08:23:45.815Z,14.63
2019-01-12T08:26:14.887Z,18.63
2019-01-12T08:28:44.260Z,18.47
2019-01-12T08:31:13.661Z,20.50
2019-01-12T08:33:42.835Z,18.27
2019-01-12T08:36:11.912Z,20.33
2019-01-12T08:38:41.102Z,18.27
2019-01-12T08:41:29.381Z,20.03
2019-01-12T08:43:58.543Z,16.60
2019-01-12T08:46:28.014Z,18.37
2019-01-12T08:48:57.120Z,20.00
2019-01-12T08:51:26.321Z,19.70
2019-01-12T08:53:55.820Z,19.00
2019-01-12T08:56:25.004Z,18.00
2019-01-12T08:58:54.133Z,20.67
2019-01-12T09:01:23.597Z,16.80
2019-01-12T09:03:52.792Z,15.63
2019-01-12T09:06:21.971Z,15.23
2019-01-12T09:08:51.307Z,18.30
2019-01-12T09:11:20.624Z,20.13
2019-01-12T09:13:50.093Z,21.80
2019-01-12T09:16:19.231Z,19.97
2019-01-12T09:18:48.602Z,20.27
2019-01-12T09:21:17.762Z,21.03
2019-01-12T09:23:47.611Z,20.60
2019-01-12T09:26:16.754Z,19.07
2019-01-12T09:28:45.919Z,21.80
2019-01-12T09:31:15.076Z,17.13
2019-01-12T09:33:44.263Z,15.83
2019-01-12T09:36:13.760Z,15.23
2019-01-12T09:38:43.315Z,14.20
2019-01-12T09:41:12.735Z,13.87
2019-01-12T09:43:41.863Z,14.30
2019-01-12T09:46:11.055Z,15.40
2019-01-12T09:48:40.196Z,13.20
2019-01-12T09:51:09.803Z,12.97
2019-01-12T09:53:38.980Z,11.77
2019-01-12T09:56:08.126Z,12.10
2019-01-12T09:58:37.244Z,16.20
2019-01-12T10:01:06.403Z,14.70
2019-01-12T10:03:35.642Z,13.63
2019-01-12T10:06:04.829Z,12.80
2019-01-12T10:08:34.048Z,14.40
2019-01-12T10:11:03.207Z,16.10
2019-01-12T10:13:32.428Z,15.90
2019-01-12T10:16:01.575Z,23.20
2019-01-12T10:18:30.948Z,18.40
2019-01-12T10:21:00.107Z,23.77
2019-01-12T10:23:29.261Z,23.80
2019-01-12T10:25:58.820Z,20.10
2019-01-12T10:28:28.202Z,18.97
2019-01-12T10:30:57.603Z,21.20
2019-01-12T10:33:27.272Z,21.37
2019-01-12T10:35:56.420Z,30.20
2019-01-12T10:38:25.599Z,20.43
2019-01-12T10:40:54.757Z,21.50
2019-01-12T10:43:24.175Z,20.33
2019-01-12T10:45:53.326Z,23.17
2019-01-12T10:48:22.487Z,19.77
2019-01-12T10:50:51.747Z,21.23
2019-01-12T10:53:20.919Z,21.90
2019-01-12T10:55:50.319Z,21.77
2019-01-12T10:58:19.745Z,22.43
2019-01-12T11:00:48.932Z,24.20
2019-01-12T11:03:19.249Z,22.40
2019-01-12T11:05:48.994Z,21.40
2019-01-12T11:08:18.127Z,21.27
2019-01-12T11:10:47.591Z,25.20
2019-01-12T11:13:17.006Z,25.00
2019-01-12T11:15:46.166Z,22.60
2019-01-12T11:18:15.327Z,23.60
2019-01-12T11:20:44.518Z,23.87
2019-01-12T11:23:13.654Z,20.00
2019-01-12T11:25:43.323Z,22.30
2019-01-12T11:28:12.631Z,22.17
2019-01-12T11:30:42.047Z,22.87
2019-01-12T11:33:11.223Z,22.97
2019-01-12T11:35:40.596Z,23.37
2019-01-12T11:38:09.739Z,23.00
2019-01-12T11:40:38.942Z,20.90
2019-01-12T11:43:08.090Z,21.30
2019-01-12T11:45:37.199Z,21.90
2019-01-12T11:48:07.144Z,22.20
2019-01-12T11:50:36.259Z,22.10
2019-01-12T11:53:05.422Z,22.07
2019-01-12T11:55:34.861Z,21.53
2019-01-12T11:58:04.356Z,19.43
2019-01-12T12:00:33.531Z,18.67
2019-01-12T12:03:02.758Z,19.17
2019-01-12T12:05:31.951Z,10.50
2019-01-12T12:08:01.351Z,9.97
2019-01-12T12:10:30.534Z,16.10
2019-01-12T12:12:59.707Z,14.27
2019-01-12T12:15:28.904Z,15.93
2019-01-12T12:17:57.981Z,14.63
2019-01-12T12:20:27.960Z,12.37
2019-01-12T12:22:57.111Z,15.20
2019-01-12T12:25:26.520Z,12.27
2019-01-12T12:27:55.685Z,15.00
2019-01-12T12:30:30.749Z,9.20
2019-01-12T12:33:00.291Z,7.20
2019-01-12T12:35:29.481Z,10.00
2019-01-12T12:37:58.627Z,10.27
2019-01-12T12:40:27.802Z,10.30
2019-01-12T12:42:57.020Z,8.83
2019-01-12T12:45:27.815Z,4.97
2019-01-12T12:47:57.483Z,6.57
2019-01-12T12:50:27.121Z,7.23
2019-01-12T12:52:56.286Z,5.90
2019-01-12T12:55:25.846Z,5.50
2019-01-12T12:57:55.071Z,5.43
2019-01-12T13:00:25.498Z,3.53
2019-01-12T13:02:54.638Z,5.00
2019-01-12T13:05:23.809Z,5.07
2019-01-12T13:07:53.028Z,4.13
2019-01-12T13:10:25.278Z,6.40
2019-01-12T13:12:54.900Z,6.53
2019-01-12T13:15:24.047Z,5.50
2019-01-12T13:17:53.484Z,4.67
2019-01-12T13:20:22.906Z,5.53
2019-01-12T13:22:52.363Z,5.33
2019-01-12T13:25:21.500Z,4.33
2019-01-12T13:27:50.947Z,4.00
2019-01-12T13:30:29.427Z,3.07
2019-01-12T13:32:58.604Z,2.90
2019-01-12T13:35:28.076Z,3.20
2019-01-12T13:37:57.260Z,2.43
2019-01-12T13:40:27.079Z,3.20
2019-01-12T13:42:56.511Z,2.90
2019-01-12T13:45:25.651Z,4.17
2019-01-12T13:47:55.020Z,3.63
2019-01-12T13:50:25.271Z,4.13
2019-01-12T13:52:54.661Z,3.40
2019-01-12T13:55:23.802Z,3.30
2019-01-12T13:57:53.245Z,3.10
2019-01-12T14:00:26.713Z,3.70
2019-01-12T14:02:56.161Z,4.10
2019-01-12T14:05:25.294Z,3.83
2019-01-12T14:07:56.442Z,3.23
2019-01-12T14:10:25.887Z,3.70
2019-01-12T14:12:55.313Z,4.00
2019-01-12T14:15:24.655Z,4.40
2019-01-12T14:17:53.790Z,4.07
2019-01-12T14:20:24.212Z,4.10
2019-01-12T14:22:53.408Z,4.13
2019-01-12T14:25:22.820Z,4.37
2019-01-12T14:27:54.996Z,3.80
2019-01-12T14:30:23.575Z,3.73
2019-01-12T14:32:53.086Z,4.50
2019-01-12T14:35:22.253Z,3.50
2019-01-12T14:37:51.500Z,3.87
2019-01-12T14:40:20.931Z,3.70
2019-01-12T14:42:50.091Z,4.13
2019-01-12T14:45:20.545Z,3.93
2019-01-12T14:47:50.119Z,3.17
2019-01-12T14:50:19.525Z,3.90
2019-01-12T14:52:49.250Z,3.40
2019-01-12T14:55:18.695Z,3.47
2019-01-12T14:57:48.080Z,3.50
2019-01-12T15:00:18.345Z,2.60
2019-01-12T15:02:47.861Z,3.70
2019-01-12T15:05:17.946Z,3.00
2019-01-12T15:07:47.246Z,3.90
2019-01-12T15:10:17.101Z,3.33
2019-01-12T15:12:46.649Z,2.70
2019-01-12T15:15:16.137Z,4.00
2019-01-12T15:17:45.390Z,3.17
2019-01-12T15:20:18.349Z,3.73
2019-01-12T15:22:47.491Z,3.00
2019-01-12T15:25:16.690Z,4.60
2019-01-12T15:27:45.932Z,3.10
2019-01-12T15:30:19.417Z,3.67
2019-01-12T15:32:48.554Z,2.83
2019-01-12T15:35:18.139Z,2.30
2019-01-12T15:37:47.767Z,2.97
2019-01-12T15:40:17.346Z,3.00
2019-01-12T15:42:46.803Z,2.37
2019-01-12T15:45:19.858Z,2.80
2019-01-12T15:47:49.077Z,3.70
2019-01-12T15:50:19.367Z,3.77
2019-01-12T15:52:48.502Z,3.77
2019-01-12T15:55:18.095Z,3.50
2019-01-12T15:57:47.579Z,3.47
2019-01-12T16:00:35.876Z,3.57
2019-01-12T16:03:05.046Z,3.90
2019-01-12T16:05:34.232Z,4.40
2019-01-12T16:08:03.367Z,4.20
2019-01-12T16:10:33.529Z,4.43
2019-01-12T16:13:02.858Z,4.53
2019-01-12T16:15:32.027Z,4.30
2019-01-12T16:18:01.288Z,5.00
2019-01-12T16:20:34.938Z,5.60
2019-01-12T16:23:04.744Z,6.43
2019-01-12T16:25:34.248Z,5.90
2019-01-12T16:28:03.382Z,5.87
2019-01-12T16:30:32.751Z,5.27
2019-01-12T16:33:01.956Z,5.83
2019-01-12T16:35:31.096Z,6.50
2019-01-12T16:38:00.528Z,6.80
2019-01-12T16:40:29.973Z,5.57
2019-01-12T16:42:59.578Z,6.37
2019-01-12T16:45:28.715Z,6.77
2019-01-12T16:47:57.929Z,7.20
2019-01-12T16:50:27.114Z,7.00
2019-01-12T16:52:56.267Z,5.90
2019-01-12T16:55:25.419Z,6.10
2019-01-12T16:57:54.895Z,5.90
2019-01-12T17:00:28.419Z,5.67
2019-01-12T17:02:58.077Z,6.57
2019-01-12T17:05:27.221Z,5.43
2019-01-12T17:07:56.423Z,5.10
2019-01-12T17:10:25.595Z,5.50
2019-01-12T17:12:55.067Z,4.40
2019-01-12T17:15:24.367Z,4.80
2019-01-12T17:17:53.531Z,4.97
2019-01-12T17:20:23.828Z,4.70
2019-01-12T17:22:53.875Z,4.53
2019-01-12T17:25:23.012Z,4.20
2019-01-12T17:27:52.370Z,5.37
2019-01-12T17:30:22.249Z,4.60
2019-01-12T17:32:51.657Z,5.30
2019-01-12T17:35:21.152Z,4.60
2019-01-12T17:37:50.298Z,5.37
2019-01-12T17:40:19.480Z,5.87
2019-01-12T17:42:48.884Z,5.70
2019-01-12T17:45:19.026Z,5.73
2019-01-12T17:47:48.136Z,5.70
2019-01-12T17:50:18.376Z,5.80
2019-01-12T17:52:47.654Z,6.47
2019-01-12T17:55:18.364Z,5.40
2019-01-12T17:57:47.495Z,5.33
2019-01-12T18:00:21.552Z,6.00
2019-01-12T18:02:50.947Z,6.10
2019-01-12T18:05:20.073Z,6.07
2019-01-12T18:07:49.518Z,6.07
2019-01-12T18:10:18.851Z,6.40
2019-01-12T18:12:48.521Z,6.07
2019-01-12T18:15:17.950Z,5.73
2019-01-12T18:17:47.088Z,5.70
2019-01-12T18:20:16.267Z,5.07
2019-01-12T18:22:45.494Z,5.00
2019-01-12T18:25:14.668Z,5.40
2019-01-12T18:27:43.852Z,5.20
2019-01-12T18:30:14.980Z,6.10
2019-01-12T18:32:44.167Z,5.47
2019-01-12T18:35:13.552Z,6.53
2019-01-12T18:37:42.725Z,5.20
2019-01-12T18:40:12.990Z,5.80
2019-01-12T18:42:42.203Z,5.70
2019-01-12T18:45:12.038Z,6.67
2019-01-12T18:47:41.470Z,5.90
2019-01-12T18:50:12.062Z,5.03
2019-01-12T18:52:41.512Z,5.53
2019-01-12T18:55:10.989Z,4.57
2019-01-12T18:57:40.529Z,4.50
2019-01-12T19:00:18.394Z,4.60
2019-01-12T19:02:42.961Z,5.00
2019-01-12T19:05:12.425Z,5.23
2019-01-12T19:07:41.587Z,5.83
2019-01-12T19:10:10.938Z,5.10
2019-01-12T19:12:40.075Z,5.33
2019-01-12T19:15:10.723Z,5.70
2019-01-12T19:17:40.181Z,5.13
2019-01-12T19:20:09.329Z,6.27
2019-01-12T19:22:38.722Z,5.40
2019-01-12T19:25:08.237Z,5.37
2019-01-12T19:27:37.308Z,5.47
2019-01-12T19:30:08.164Z,5.50
2019-01-12T19:32:37.903Z,6.43
2019-01-12T19:35:07.319Z,6.13
2019-01-12T19:37:36.729Z,5.03
2019-01-12T19:40:07.736Z,6.03
2019-01-12T19:42:37.149Z,6.33
2019-01-12T19:45:06.835Z,6.10
2019-01-12T19:47:35.983Z,5.70
2019-01-12T19:50:05.835Z,5.77
2019-01-12T19:52:35.050Z,4.80
2019-01-12T19:55:04.947Z,5.00
2019-01-12T19:57:34.356Z,5.80
2019-01-12T20:00:04.445Z,4.53
2019-01-12T20:02:33.787Z,5.30
2019-01-12T20:05:03.122Z,5.43
2019-01-12T20:07:32.556Z,4.63
2019-01-12T20:10:01.748Z,4.80
2019-01-12T20:12:31.197Z,5.13
2019-01-12T20:15:00.387Z,5.57
2019-01-12T20:17:29.531Z,5.50
2019-01-12T20:19:58.740Z,5.40
2019-01-12T20:22:27.851Z,4.97
2019-01-12T20:24:57.036Z,6.07
2019-01-12T20:27:33.312Z,5.00
2019-01-12T20:29:57.347Z,5.27
2019-01-12T20:32:40.069Z,5.47
2019-01-12T20:35:14.584Z,5.27
2019-01-12T20:37:53.022Z,5.03
2019-01-12T20:40:25.587Z,4.63
2019-01-12T20:43:13.673Z,4.70
2019-01-12T20:45:54.104Z,3.90
2019-01-12T20:48:42.412Z,4.50
2019-01-12T20:51:29.619Z,4.13
2019-01-12T20:54:23.965Z,3.77
2019-01-12T20:57:12.279Z,4.23
2019-01-12T20:59:46.655Z,2.87
2019-01-12T21:02:33.828Z,2.97
2019-01-12T21:05:34.306Z,3.10
2019-01-12T21:08:07.396Z,3.27
2019-01-12T21:10:42.042Z,3.03
2019-01-12T21:13:29.006Z,2.50
2019-01-12T21:16:03.566Z,3.10
2019-01-12T21:18:32.726Z,2.30
2019-01-12T21:21:02.324Z,2.90
2019-01-12T21:23:31.717Z,2.80
2019-01-12T21:26:00.843Z,1.97
2019-01-12T21:28:30.006Z,2.30
2019-01-12T21:30:59.134Z,2.20
2019-01-12T21:33:28.261Z,2.37
2019-01-12T21:35:57.328Z,1.83
2019-01-12T21:38:26.520Z,5.00
2019-01-12T21:40:55.704Z,7.20
2019-01-12T21:43:25.038Z,7.30
2019-01-12T21:45:54.823Z,6.00
2019-01-12T21:48:24.203Z,5.87
2019-01-12T21:50:53.612Z,4.30
2019-01-12T21:53:22.795Z,2.57
2019-01-12T21:55:52.182Z,1.50
2019-01-12T21:58:21.335Z,2.03
2019-01-12T22:00:50.906Z,3.30
2019-01-12T22:03:20.062Z,3.10
2019-01-12T22:05:49.247Z,2.67
2019-01-12T22:08:18.415Z,2.63
2019-01-12T22:10:47.900Z,1.80
2019-01-12T22:13:17.087Z,1.60
2019-01-12T22:15:46.191Z,1.60
2019-01-12T22:18:15.346Z,1.70
2019-01-12T22:23:12.646Z,1.20
2019-01-12T22:25:41.713Z,1.30
2019-01-12T22:28:11.075Z,1.37
2019-01-12T22:30:40.150Z,1.30
